sensor_id;sensor_type;location;lat;lon;timestamp;temperature;humidity
13744;DHT22;6943;52.368;9.966;2023-07-31T00:01:19;16.70;99.90
13744;DHT22;6943;52.368;9.966;2023-07-31T00:03:45;16.80;99.90
13744;DHT22;6943;52.368;9.966;2023-07-31T00:06:11;16.80;99.90
13744;DHT22;6943;52.368;9.966;2023-07-31T00:08:36;16.80;99.90
13744;DHT22;6943;52.368;9.966;2023-07-31T00:11:02;16.90;99.90
13744;DHT22;6943;52.368;9.966;2023-07-31T00:13:27;17.00;1.00
13744;DHT22;6943;52.368;9.966;2023-07-31T00:15:53;17.00;1.00
13744;DHT22;6943;52.368;9.966;2023-07-31T00:18:19;17.00;1.00
13744;DHT22;6943;52.368;9.966;2023-07-31T00:20:44;17.00;1.00
13744;DHT22;6943;52.368;9.966;2023-07-31T00:23:10;17.00;70.30
13744;DHT22;6943;52.368;9.966;2023-07-31T00:25:35;17.00;99.90
13744;DHT22;6943;52.368;9.966;2023-07-31T00:28:01;17.00;99.90
13744;DHT22;6943;52.368;9.966;2023-07-31T00:30:26;16.90;1.00
13744;DHT22;6943;52.368;9.966;2023-07-31T00:32:52;16.90;1.00
13744;DHT22;6943;52.368;9.966;2023-07-31T00:35:18;17.00;1.00
13744;DHT22;6943;52.368;9.966;2023-07-31T00:37:43;17.00;1.00
13744;DHT22;6943;52.368;9.966;2023-07-31T00:40:09;17.10;1.00
13744;DHT22;6943;52.368;9.966;2023-07-31T00:42:34;17.10;1.00
13744;DHT22;6943;52.368;9.966;2023-07-31T00:45:00;17.10;1.00
13744;DHT22;6943;52.368;9.966;2023-07-31T00:47:26;17.10;1.00
13744;DHT22;6943;52.368;9.966;2023-07-31T00:49:52;17.10;1.00
13744;DHT22;6943;52.368;9.966;2023-07-31T00:52:18;17.10;1.00
13744;DHT22;6943;52.368;9.966;2023-07-31T00:54:44;17.10;1.00
13744;DHT22;6943;52.368;9.966;2023-07-31T00:57:10;17.10;1.00
13744;DHT22;6943;52.368;9.966;2023-07-31T00:59:36;17.10;1.00
13744;DHT22;6943;52.368;9.966;2023-07-31T01:02:01;17.00;1.00
13744;DHT22;6943;52.368;9.966;2023-07-31T01:04:28;17.00;1.00
13744;DHT22;6943;52.368;9.966;2023-07-31T01:09:40;17.30;1.00
13744;DHT22;6943;52.368;9.966;2023-07-31T01:12:14;16.70;27.10
13744;DHT22;6943;52.368;9.966;2023-07-31T01:14:40;16.60;99.90
13744;DHT22;6943;52.368;9.966;2023-07-31T01:17:06;16.50;99.90
13744;DHT22;6943;52.368;9.966;2023-07-31T01:19:31;16.50;99.90
13744;DHT22;6943;52.368;9.966;2023-07-31T01:22:54;16.40;99.90
13744;DHT22;6943;52.368;9.966;2023-07-31T01:27:56;16.40;99.90
13744;DHT22;6943;52.368;9.966;2023-07-31T01:30:27;16.30;99.90
13744;DHT22;6943;52.368;9.966;2023-07-31T01:32:54;15.00;99.90
13744;DHT22;6943;52.368;9.966;2023-07-31T01:35:21;16.40;99.90
13744;DHT22;6943;52.368;9.966;2023-07-31T01:37:47;16.30;99.90
13744;DHT22;6943;52.368;9.966;2023-07-31T01:40:12;16.30;99.90
13744;DHT22;6943;52.368;9.966;2023-07-31T01:42:38;16.40;99.90
13744;DHT22;6943;52.368;9.966;2023-07-31T01:45:04;16.40;99.90
13744;DHT22;6943;52.368;9.966;2023-07-31T01:47:29;16.30;99.90
13744;DHT22;6943;52.368;9.966;2023-07-31T01:49:55;16.40;99.90
13744;DHT22;6943;52.368;9.966;2023-07-31T01:52:20;16.40;99.90
13744;DHT22;6943;52.368;9.966;2023-07-31T01:54:46;16.40;99.90
13744;DHT22;6943;52.368;9.966;2023-07-31T01:57:11;16.40;99.90
13744;DHT22;6943;52.368;9.966;2023-07-31T01:59:37;16.40;99.90
13744;DHT22;6943;52.368;9.966;2023-07-31T02:02:03;16.40;99.90
13744;DHT22;6943;52.368;9.966;2023-07-31T02:04:28;16.30;99.90
13744;DHT22;6943;52.368;9.966;2023-07-31T02:06:54;16.90;99.90
13744;DHT22;6943;52.368;9.966;2023-07-31T02:09:19;16.30;99.90
13744;DHT22;6943;52.368;9.966;2023-07-31T02:11:46;16.30;99.90
13744;DHT22;6943;52.368;9.966;2023-07-31T02:14:11;16.30;99.90
13744;DHT22;6943;52.368;9.966;2023-07-31T02:16:37;16.30;99.90
13744;DHT22;6943;52.368;9.966;2023-07-31T02:19:02;16.30;99.90
13744;DHT22;6943;52.368;9.966;2023-07-31T02:21:28;16.30;99.90
13744;DHT22;6943;52.368;9.966;2023-07-31T02:23:53;16.20;99.90
13744;DHT22;6943;52.368;9.966;2023-07-31T02:26:19;16.20;99.90
13744;DHT22;6943;52.368;9.966;2023-07-31T02:28:44;16.20;99.90
13744;DHT22;6943;52.368;9.966;2023-07-31T02:31:10;16.30;99.90
13744;DHT22;6943;52.368;9.966;2023-07-31T02:33:35;16.30;99.90
13744;DHT22;6943;52.368;9.966;2023-07-31T02:36:00;16.30;99.90
13744;DHT22;6943;52.368;9.966;2023-07-31T02:38:26;16.30;99.90
13744;DHT22;6943;52.368;9.966;2023-07-31T02:40:51;16.30;99.90
13744;DHT22;6943;52.368;9.966;2023-07-31T02:43:17;16.40;99.90
13744;DHT22;6943;52.368;9.966;2023-07-31T02:45:42;16.40;99.90
13744;DHT22;6943;52.368;9.966;2023-07-31T02:48:08;16.40;99.90
13744;DHT22;6943;52.368;9.966;2023-07-31T02:50:33;16.40;99.90
13744;DHT22;6943;52.368;9.966;2023-07-31T02:52:59;16.50;99.90
13744;DHT22;6943;52.368;9.966;2023-07-31T02:55:24;16.50;99.90
13744;DHT22;6943;52.368;9.966;2023-07-31T02:57:50;16.50;99.90
13744;DHT22;6943;52.368;9.966;2023-07-31T03:00:17;16.40;99.90
13744;DHT22;6943;52.368;9.966;2023-07-31T03:02:43;16.40;99.90
13744;DHT22;6943;52.368;9.966;2023-07-31T03:05:08;16.40;99.90
13744;DHT22;6943;52.368;9.966;2023-07-31T03:07:34;16.40;99.90
13744;DHT22;6943;52.368;9.966;2023-07-31T03:09:59;16.40;99.90
13744;DHT22;6943;52.368;9.966;2023-07-31T03:12:25;16.30;99.90
13744;DHT22;6943;52.368;9.966;2023-07-31T03:14:50;16.30;99.90
13744;DHT22;6943;52.368;9.966;2023-07-31T03:17:16;17.00;99.90
13744;DHT22;6943;52.368;9.966;2023-07-31T03:19:41;16.30;99.90
13744;DHT22;6943;52.368;9.966;2023-07-31T03:22:06;16.30;99.90
13744;DHT22;6943;52.368;9.966;2023-07-31T03:24:32;16.30;99.90
13744;DHT22;6943;52.368;9.966;2023-07-31T03:26:58;16.10;99.90
13744;DHT22;6943;52.368;9.966;2023-07-31T03:29:23;16.20;99.90
13744;DHT22;6943;52.368;9.966;2023-07-31T03:31:49;16.30;99.90
13744;DHT22;6943;52.368;9.966;2023-07-31T03:34:14;16.30;99.90
13744;DHT22;6943;52.368;9.966;2023-07-31T03:36:40;16.30;99.90
13744;DHT22;6943;52.368;9.966;2023-07-31T03:39:05;16.30;99.90
13744;DHT22;6943;52.368;9.966;2023-07-31T03:41:31;16.30;99.90
13744;DHT22;6943;52.368;9.966;2023-07-31T03:43:56;16.50;99.90
13744;DHT22;6943;52.368;9.966;2023-07-31T03:46:23;16.30;99.90
13744;DHT22;6943;52.368;9.966;2023-07-31T03:48:49;16.30;99.90
13744;DHT22;6943;52.368;9.966;2023-07-31T03:51:14;16.30;99.90
13744;DHT22;6943;52.368;9.966;2023-07-31T03:53:40;16.30;99.90
13744;DHT22;6943;52.368;9.966;2023-07-31T03:56:05;16.00;99.90
13744;DHT22;6943;52.368;9.966;2023-07-31T03:58:31;16.30;99.90
13744;DHT22;6943;52.368;9.966;2023-07-31T04:00:56;16.30;99.90
13744;DHT22;6943;52.368;9.966;2023-07-31T04:03:22;16.40;99.90
13744;DHT22;6943;52.368;9.966;2023-07-31T04:05:47;16.40;99.90
13744;DHT22;6943;52.368;9.966;2023-07-31T04:08:13;16.40;99.90
13744;DHT22;6943;52.368;9.966;2023-07-31T04:10:38;16.40;99.90
13744;DHT22;6943;52.368;9.966;2023-07-31T04:13:04;16.40;99.90
13744;DHT22;6943;52.368;9.966;2023-07-31T04:15:29;16.40;99.90
13744;DHT22;6943;52.368;9.966;2023-07-31T04:17:55;16.40;99.90
13744;DHT22;6943;52.368;9.966;2023-07-31T04:20:20;16.40;99.90
13744;DHT22;6943;52.368;9.966;2023-07-31T04:22:46;16.80;99.90
13744;DHT22;6943;52.368;9.966;2023-07-31T04:25:11;16.40;99.90
13744;DHT22;6943;52.368;9.966;2023-07-31T04:27:37;16.40;99.90
13744;DHT22;6943;52.368;9.966;2023-07-31T04:30:03;16.40;99.90
13744;DHT22;6943;52.368;9.966;2023-07-31T04:32:28;16.40;99.90
13744;DHT22;6943;52.368;9.966;2023-07-31T04:34:55;16.40;99.90
13744;DHT22;6943;52.368;9.966;2023-07-31T04:37:20;16.40;99.90
13744;DHT22;6943;52.368;9.966;2023-07-31T04:39:46;16.50;99.90
13744;DHT22;6943;52.368;9.966;2023-07-31T04:42:12;17.10;99.90
13744;DHT22;6943;52.368;9.966;2023-07-31T04:44:37;16.50;99.90
13744;DHT22;6943;52.368;9.966;2023-07-31T04:47:03;16.50;99.90
13744;DHT22;6943;52.368;9.966;2023-07-31T04:49:28;16.40;99.90
13744;DHT22;6943;52.368;9.966;2023-07-31T04:51:54;16.40;99.90
13744;DHT22;6943;52.368;9.966;2023-07-31T04:54:19;16.40;99.90
13744;DHT22;6943;52.368;9.966;2023-07-31T04:56:45;16.40;99.90
13744;DHT22;6943;52.368;9.966;2023-07-31T04:59:10;16.50;99.90
13744;DHT22;6943;52.368;9.966;2023-07-31T05:01:36;16.60;99.90
13744;DHT22;6943;52.368;9.966;2023-07-31T05:04:01;16.40;99.90
13744;DHT22;6943;52.368;9.966;2023-07-31T05:06:27;16.40;99.90
13744;DHT22;6943;52.368;9.966;2023-07-31T05:08:53;16.40;99.90
13744;DHT22;6943;52.368;9.966;2023-07-31T05:11:18;16.40;99.90
13744;DHT22;6943;52.368;9.966;2023-07-31T05:13:44;16.50;99.90
13744;DHT22;6943;52.368;9.966;2023-07-31T05:16:09;16.40;99.90
13744;DHT22;6943;52.368;9.966;2023-07-31T05:18:35;16.40;99.90
13744;DHT22;6943;52.368;9.966;2023-07-31T05:21:00;16.50;99.90
13744;DHT22;6943;52.368;9.966;2023-07-31T05:23:26;16.50;99.90
13744;DHT22;6943;52.368;9.966;2023-07-31T05:25:51;16.50;99.90
13744;DHT22;6943;52.368;9.966;2023-07-31T05:28:17;16.50;99.90
13744;DHT22;6943;52.368;9.966;2023-07-31T05:30:42;17.60;99.90
13744;DHT22;6943;52.368;9.966;2023-07-31T05:33:08;16.40;99.90
13744;DHT22;6943;52.368;9.966;2023-07-31T05:35:33;16.40;99.90
13744;DHT22;6943;52.368;9.966;2023-07-31T05:37:59;15.30;99.90
13744;DHT22;6943;52.368;9.966;2023-07-31T05:40:24;16.50;99.90
13744;DHT22;6943;52.368;9.966;2023-07-31T05:42:50;16.50;99.90
13744;DHT22;6943;52.368;9.966;2023-07-31T05:45:15;16.60;99.90
13744;DHT22;6943;52.368;9.966;2023-07-31T05:47:41;16.70;99.90
13744;DHT22;6943;52.368;9.966;2023-07-31T05:50:06;16.70;99.90
13744;DHT22;6943;52.368;9.966;2023-07-31T05:52:32;16.80;99.90
13744;DHT22;6943;52.368;9.966;2023-07-31T05:54:57;17.00;99.90
13744;DHT22;6943;52.368;9.966;2023-07-31T05:57:23;17.00;99.90
13744;DHT22;6943;52.368;9.966;2023-07-31T05:59:48;17.00;99.90
13744;DHT22;6943;52.368;9.966;2023-07-31T06:02:14;17.10;99.90
13744;DHT22;6943;52.368;9.966;2023-07-31T06:04:39;17.10;99.90
13744;DHT22;6943;52.368;9.966;2023-07-31T06:07:05;17.10;99.90
13744;DHT22;6943;52.368;9.966;2023-07-31T06:09:31;17.00;99.90
13744;DHT22;6943;52.368;9.966;2023-07-31T06:11:56;17.00;99.90
13744;DHT22;6943;52.368;9.966;2023-07-31T06:14:22;16.90;99.90
13744;DHT22;6943;52.368;9.966;2023-07-31T06:16:47;16.90;99.90
13744;DHT22;6943;52.368;9.966;2023-07-31T06:19:13;16.90;99.90
13744;DHT22;6943;52.368;9.966;2023-07-31T06:21:39;16.90;99.90
13744;DHT22;6943;52.368;9.966;2023-07-31T06:24:05;17.10;99.90
13744;DHT22;6943;52.368;9.966;2023-07-31T06:26:31;17.20;99.90
13744;DHT22;6943;52.368;9.966;2023-07-31T06:28:57;17.40;99.90
13744;DHT22;6943;52.368;9.966;2023-07-31T06:31:22;17.40;99.90
13744;DHT22;6943;52.368;9.966;2023-07-31T06:33:51;17.50;99.90
13744;DHT22;6943;52.368;9.966;2023-07-31T06:36:17;17.50;99.90
13744;DHT22;6943;52.368;9.966;2023-07-31T06:38:43;17.40;99.90
13744;DHT22;6943;52.368;9.966;2023-07-31T06:41:09;17.40;99.90
13744;DHT22;6943;52.368;9.966;2023-07-31T06:43:36;17.30;99.90
13744;DHT22;6943;52.368;9.966;2023-07-31T06:46:05;17.30;99.90
13744;DHT22;6943;52.368;9.966;2023-07-31T06:48:32;17.20;99.90
13744;DHT22;6943;52.368;9.966;2023-07-31T06:50:57;17.10;99.90
13744;DHT22;6943;52.368;9.966;2023-07-31T06:53:23;17.00;99.90
13744;DHT22;6943;52.368;9.966;2023-07-31T06:55:49;16.90;99.90
13744;DHT22;6943;52.368;9.966;2023-07-31T06:58:17;16.70;99.90
13744;DHT22;6943;52.368;9.966;2023-07-31T07:00:42;16.80;99.90
13744;DHT22;6943;52.368;9.966;2023-07-31T07:03:08;16.70;99.90
13744;DHT22;6943;52.368;9.966;2023-07-31T07:05:33;16.70;99.90
13744;DHT22;6943;52.368;9.966;2023-07-31T07:07:59;16.60;99.90
13744;DHT22;6943;52.368;9.966;2023-07-31T07:10:25;16.70;99.90
13744;DHT22;6943;52.368;9.966;2023-07-31T07:12:50;16.60;99.90
13744;DHT22;6943;52.368;9.966;2023-07-31T07:15:16;16.70;99.90
13744;DHT22;6943;52.368;9.966;2023-07-31T07:17:41;17.20;99.90
13744;DHT22;6943;52.368;9.966;2023-07-31T07:20:08;16.80;99.90
13744;DHT22;6943;52.368;9.966;2023-07-31T07:22:33;16.80;99.90
13744;DHT22;6943;52.368;9.966;2023-07-31T07:24:59;16.80;99.90
13744;DHT22;6943;52.368;9.966;2023-07-31T07:27:24;16.90;99.90
13744;DHT22;6943;52.368;9.966;2023-07-31T07:29:50;16.90;99.90
13744;DHT22;6943;52.368;9.966;2023-07-31T07:32:17;17.00;99.90
13744;DHT22;6943;52.368;9.966;2023-07-31T07:34:43;17.10;99.90
13744;DHT22;6943;52.368;9.966;2023-07-31T07:37:09;17.10;99.90
13744;DHT22;6943;52.368;9.966;2023-07-31T07:39:34;17.10;99.90
13744;DHT22;6943;52.368;9.966;2023-07-31T07:42:00;17.40;99.90
13744;DHT22;6943;52.368;9.966;2023-07-31T07:44:26;17.70;99.90
13744;DHT22;6943;52.368;9.966;2023-07-31T07:46:52;18.10;99.90
13744;DHT22;6943;52.368;9.966;2023-07-31T07:49:17;18.50;26.70
13744;DHT22;6943;52.368;9.966;2023-07-31T07:51:43;19.00;1.00
13744;DHT22;6943;52.368;9.966;2023-07-31T07:54:09;19.20;1.00
13744;DHT22;6943;52.368;9.966;2023-07-31T07:56:34;19.60;1.00
13744;DHT22;6943;52.368;9.966;2023-07-31T07:59:01;19.70;1.00
13744;DHT22;6943;52.368;9.966;2023-07-31T08:01:27;19.60;1.00
13744;DHT22;6943;52.368;9.966;2023-07-31T08:03:52;19.50;82.20
13744;DHT22;6943;52.368;9.966;2023-07-31T08:06:18;19.50;1.00
13744;DHT22;6943;52.368;9.966;2023-07-31T08:08:44;19.70;1.00
13744;DHT22;6943;52.368;9.966;2023-07-31T08:11:09;20.30;99.90
13744;DHT22;6943;52.368;9.966;2023-07-31T08:13:35;20.60;1.00
13744;DHT22;6943;52.368;9.966;2023-07-31T08:16:02;20.80;99.90
13744;DHT22;6943;52.368;9.966;2023-07-31T08:18:28;20.80;1.00
13744;DHT22;6943;52.368;9.966;2023-07-31T08:20:53;20.50;1.00
13744;DHT22;6943;52.368;9.966;2023-07-31T08:23:19;20.40;99.90
13744;DHT22;6943;52.368;9.966;2023-07-31T08:25:45;20.20;45.30
13744;DHT22;6943;52.368;9.966;2023-07-31T08:28:10;19.90;1.00
13744;DHT22;6943;52.368;9.966;2023-07-31T08:30:36;19.70;66.20
13744;DHT22;6943;52.368;9.966;2023-07-31T08:33:02;19.50;1.00
13744;DHT22;6943;52.368;9.966;2023-07-31T08:35:28;19.40;1.00
13744;DHT22;6943;52.368;9.966;2023-07-31T08:37:54;19.30;1.00
13744;DHT22;6943;52.368;9.966;2023-07-31T08:40:19;19.40;1.00
13744;DHT22;6943;52.368;9.966;2023-07-31T08:42:48;19.10;1.00
13744;DHT22;6943;52.368;9.966;2023-07-31T08:45:19;18.90;1.00
13744;DHT22;6943;52.368;9.966;2023-07-31T08:47:46;19.00;99.90
13744;DHT22;6943;52.368;9.966;2023-07-31T08:50:13;19.40;99.90
13744;DHT22;6943;52.368;9.966;2023-07-31T08:52:39;19.50;99.90
13744;DHT22;6943;52.368;9.966;2023-07-31T08:55:09;19.40;1.00
13744;DHT22;6943;52.368;9.966;2023-07-31T08:57:36;19.10;99.90
13744;DHT22;6943;52.368;9.966;2023-07-31T09:00:04;18.90;1.00
13744;DHT22;6943;52.368;9.966;2023-07-31T09:02:38;18.70;1.00
13744;DHT22;6943;52.368;9.966;2023-07-31T09:05:07;18.60;1.00
13744;DHT22;6943;52.368;9.966;2023-07-31T09:07:34;18.50;99.90
13744;DHT22;6943;52.368;9.966;2023-07-31T09:10:00;18.80;89.70
13744;DHT22;6943;52.368;9.966;2023-07-31T09:12:26;19.10;1.00
13744;DHT22;6943;52.368;9.966;2023-07-31T09:14:51;19.50;99.90
13744;DHT22;6943;52.368;9.966;2023-07-31T09:17:32;19.90;1.00
13744;DHT22;6943;52.368;9.966;2023-07-31T09:19:58;19.90;1.00
13744;DHT22;6943;52.368;9.966;2023-07-31T09:22:37;19.60;99.90
13744;DHT22;6943;52.368;9.966;2023-07-31T09:25:26;19.20;1.00
13744;DHT22;6943;52.368;9.966;2023-07-31T09:30:19;19.20;1.00
13744;DHT22;6943;52.368;9.966;2023-07-31T09:32:46;19.20;1.00
13744;DHT22;6943;52.368;9.966;2023-07-31T09:35:28;19.40;1.00
13744;DHT22;6943;52.368;9.966;2023-07-31T09:37:56;19.90;1.00
13744;DHT22;6943;52.368;9.966;2023-07-31T09:40:33;20.30;1.00
13744;DHT22;6943;52.368;9.966;2023-07-31T09:43:01;20.40;94.70
13744;DHT22;6943;52.368;9.966;2023-07-31T09:45:28;20.20;1.00
13744;DHT22;6943;52.368;9.966;2023-07-31T09:47:54;19.90;1.00
13744;DHT22;6943;52.368;9.966;2023-07-31T09:50:22;19.80;1.00
13744;DHT22;6943;52.368;9.966;2023-07-31T09:52:47;19.80;1.00
13744;DHT22;6943;52.368;9.966;2023-07-31T09:55:13;19.90;1.00
13744;DHT22;6943;52.368;9.966;2023-07-31T09:57:44;19.80;1.00
13744;DHT22;6943;52.368;9.966;2023-07-31T10:00:11;19.70;1.00
13744;DHT22;6943;52.368;9.966;2023-07-31T10:02:38;19.50;1.00
13744;DHT22;6943;52.368;9.966;2023-07-31T10:05:05;19.40;1.00
13744;DHT22;6943;52.368;9.966;2023-07-31T10:07:36;19.30;99.90
13744;DHT22;6943;52.368;9.966;2023-07-31T10:10:02;19.30;99.90
13744;DHT22;6943;52.368;9.966;2023-07-31T10:12:29;19.30;1.00
13744;DHT22;6943;52.368;9.966;2023-07-31T10:14:56;19.30;99.90
13744;DHT22;6943;52.368;9.966;2023-07-31T10:17:23;19.40;99.90
13744;DHT22;6943;52.368;9.966;2023-07-31T10:19:49;19.40;1.00
13744;DHT22;6943;52.368;9.966;2023-07-31T10:22:15;19.40;99.90
13744;DHT22;6943;52.368;9.966;2023-07-31T10:24:45;19.40;99.90
13744;DHT22;6943;52.368;9.966;2023-07-31T10:27:11;19.40;27.40
13744;DHT22;6943;52.368;9.966;2023-07-31T10:29:40;19.50;99.90
13744;DHT22;6943;52.368;9.966;2023-07-31T10:32:07;19.50;99.90
13744;DHT22;6943;52.368;9.966;2023-07-31T10:34:36;19.60;1.00
13744;DHT22;6943;52.368;9.966;2023-07-31T10:37:21;19.60;1.00
13744;DHT22;6943;52.368;9.966;2023-07-31T10:40:19;19.70;1.00
13744;DHT22;6943;52.368;9.966;2023-07-31T10:42:54;19.90;59.70
13744;DHT22;6943;52.368;9.966;2023-07-31T10:48:04;20.10;99.90
13744;DHT22;6943;52.368;9.966;2023-07-31T10:50:31;20.10;1.00
13744;DHT22;6943;52.368;9.966;2023-07-31T10:53:00;20.20;99.90
13744;DHT22;6943;52.368;9.966;2023-07-31T10:55:33;20.30;1.00
13744;DHT22;6943;52.368;9.966;2023-07-31T10:58:12;20.70;99.90
13744;DHT22;6943;52.368;9.966;2023-07-31T11:00:39;20.80;1.00
13744;DHT22;6943;52.368;9.966;2023-07-31T11:08:18;21.00;1.00
13744;DHT22;6943;52.368;9.966;2023-07-31T11:11:04;21.50;99.90
13744;DHT22;6943;52.368;9.966;2023-07-31T11:16:12;21.80;1.00
13744;DHT22;6943;52.368;9.966;2023-07-31T11:18:42;21.60;1.00
13744;DHT22;6943;52.368;9.966;2023-07-31T11:21:20;21.50;1.00
13744;DHT22;6943;52.368;9.966;2023-07-31T11:23:47;21.30;99.90
13744;DHT22;6943;52.368;9.966;2023-07-31T11:26:12;21.50;1.00
13744;DHT22;6943;52.368;9.966;2023-07-31T11:28:38;21.40;1.00
13744;DHT22;6943;52.368;9.966;2023-07-31T11:31:04;21.50;1.00
13744;DHT22;6943;52.368;9.966;2023-07-31T11:33:30;21.60;1.00
13744;DHT22;6943;52.368;9.966;2023-07-31T11:35:56;21.40;1.00
13744;DHT22;6943;52.368;9.966;2023-07-31T11:38:27;21.10;1.00
13744;DHT22;6943;52.368;9.966;2023-07-31T11:40:54;20.90;1.00
13744;DHT22;6943;52.368;9.966;2023-07-31T11:43:20;20.70;99.90
13744;DHT22;6943;52.368;9.966;2023-07-31T11:45:50;20.60;1.00
13744;DHT22;6943;52.368;9.966;2023-07-31T11:48:29;20.60;1.00
13744;DHT22;6943;52.368;9.966;2023-07-31T11:50:58;20.70;99.90
13744;DHT22;6943;52.368;9.966;2023-07-31T11:55:54;20.60;1.00
13744;DHT22;6943;52.368;9.966;2023-07-31T11:58:21;20.60;1.00
13744;DHT22;6943;52.368;9.966;2023-07-31T12:00:47;20.90;1.00
13744;DHT22;6943;52.368;9.966;2023-07-31T12:03:13;20.90;99.90
13744;DHT22;6943;52.368;9.966;2023-07-31T12:05:39;21.00;99.90
13744;DHT22;6943;52.368;9.966;2023-07-31T12:08:11;21.20;99.90
13744;DHT22;6943;52.368;9.966;2023-07-31T12:10:37;21.30;1.00
13744;DHT22;6943;52.368;9.966;2023-07-31T12:15:37;21.50;1.00
13744;DHT22;6943;52.368;9.966;2023-07-31T12:18:11;21.60;1.00
13744;DHT22;6943;52.368;9.966;2023-07-31T12:20:45;21.60;1.00
13744;DHT22;6943;52.368;9.966;2023-07-31T12:23:18;21.50;1.00
13744;DHT22;6943;52.368;9.966;2023-07-31T12:28:40;21.50;1.00
13744;DHT22;6943;52.368;9.966;2023-07-31T12:31:05;21.60;1.00
13744;DHT22;6943;52.368;9.966;2023-07-31T12:33:33;21.70;1.00
13744;DHT22;6943;52.368;9.966;2023-07-31T12:36:03;21.70;1.00
13744;DHT22;6943;52.368;9.966;2023-07-31T12:38:30;21.70;1.00
13744;DHT22;6943;52.368;9.966;2023-07-31T12:40:56;21.80;1.00
13744;DHT22;6943;52.368;9.966;2023-07-31T12:43:21;22.00;1.00
13744;DHT22;6943;52.368;9.966;2023-07-31T12:45:47;21.90;1.00
13744;DHT22;6943;52.368;9.966;2023-07-31T12:48:13;21.60;1.00
13744;DHT22;6943;52.368;9.966;2023-07-31T12:50:39;21.40;1.00
13744;DHT22;6943;52.368;9.966;2023-07-31T12:53:05;21.50;5.10
13744;DHT22;6943;52.368;9.966;2023-07-31T12:55:31;21.40;1.00
13744;DHT22;6943;52.368;9.966;2023-07-31T12:57:56;21.40;1.00
13744;DHT22;6943;52.368;9.966;2023-07-31T13:00:22;21.40;99.90
13744;DHT22;6943;52.368;9.966;2023-07-31T13:02:48;21.30;99.90
13744;DHT22;6943;52.368;9.966;2023-07-31T13:05:13;21.20;1.00
13744;DHT22;6943;52.368;9.966;2023-07-31T13:07:39;21.20;99.90
13744;DHT22;6943;52.368;9.966;2023-07-31T13:10:06;21.10;99.90
13744;DHT22;6943;52.368;9.966;2023-07-31T13:12:32;20.80;1.00
13744;DHT22;6943;52.368;9.966;2023-07-31T13:14:57;20.80;1.00
13744;DHT22;6943;52.368;9.966;2023-07-31T13:17:23;19.60;1.00
13744;DHT22;6943;52.368;9.966;2023-07-31T13:19:48;20.80;1.00
13744;DHT22;6943;52.368;9.966;2023-07-31T13:22:14;20.90;1.00
13744;DHT22;6943;52.368;9.966;2023-07-31T13:24:39;21.00;1.00
13744;DHT22;6943;52.368;9.966;2023-07-31T13:27:05;21.30;1.00
13744;DHT22;6943;52.368;9.966;2023-07-31T13:29:31;20.80;1.00
13744;DHT22;6943;52.368;9.966;2023-07-31T13:31:57;20.80;1.00
13744;DHT22;6943;52.368;9.966;2023-07-31T13:34:23;20.60;1.00
13744;DHT22;6943;52.368;9.966;2023-07-31T13:36:48;20.60;1.00
13744;DHT22;6943;52.368;9.966;2023-07-31T13:39:14;20.60;1.00
13744;DHT22;6943;52.368;9.966;2023-07-31T13:41:39;20.70;99.90
13744;DHT22;6943;52.368;9.966;2023-07-31T13:44:05;20.70;1.00
13744;DHT22;6943;52.368;9.966;2023-07-31T13:46:30;20.60;1.00
13744;DHT22;6943;52.368;9.966;2023-07-31T13:48:58;20.60;1.00
13744;DHT22;6943;52.368;9.966;2023-07-31T13:51:25;20.50;1.00
13744;DHT22;6943;52.368;9.966;2023-07-31T13:53:50;20.60;1.00
13744;DHT22;6943;52.368;9.966;2023-07-31T13:56:16;20.70;1.00
13744;DHT22;6943;52.368;9.966;2023-07-31T13:58:41;20.90;1.00
13744;DHT22;6943;52.368;9.966;2023-07-31T14:01:07;20.90;99.90
13744;DHT22;6943;52.368;9.966;2023-07-31T14:03:32;21.10;99.90
13744;DHT22;6943;52.368;9.966;2023-07-31T14:05:58;21.10;33.80
13744;DHT22;6943;52.368;9.966;2023-07-31T14:08:23;21.10;99.90
13744;DHT22;6943;52.368;9.966;2023-07-31T14:10:49;20.90;1.00
13744;DHT22;6943;52.368;9.966;2023-07-31T14:13:14;20.80;1.00
13744;DHT22;6943;52.368;9.966;2023-07-31T14:15:42;20.70;1.00
13744;DHT22;6943;52.368;9.966;2023-07-31T14:18:08;20.60;19.60
13744;DHT22;6943;52.368;9.966;2023-07-31T14:20:34;20.60;99.90
13744;DHT22;6943;52.368;9.966;2023-07-31T14:22:59;20.60;99.90
13744;DHT22;6943;52.368;9.966;2023-07-31T14:25:25;20.70;47.10
13744;DHT22;6943;52.368;9.966;2023-07-31T14:27:50;20.60;1.00
13744;DHT22;6943;52.368;9.966;2023-07-31T14:30:16;20.70;99.90
13744;DHT22;6943;52.368;9.966;2023-07-31T14:32:42;20.70;1.00
13744;DHT22;6943;52.368;9.966;2023-07-31T14:35:08;20.70;1.00
13744;DHT22;6943;52.368;9.966;2023-07-31T14:37:40;20.60;1.00
13744;DHT22;6943;52.368;9.966;2023-07-31T14:40:07;20.60;1.00
13744;DHT22;6943;52.368;9.966;2023-07-31T14:42:34;20.70;1.00
13744;DHT22;6943;52.368;9.966;2023-07-31T14:45:00;21.00;1.00
13744;DHT22;6943;52.368;9.966;2023-07-31T14:47:25;21.30;99.90
13744;DHT22;6943;52.368;9.966;2023-07-31T14:49:51;21.60;1.00
13744;DHT22;6943;52.368;9.966;2023-07-31T14:52:16;21.60;1.00
13744;DHT22;6943;52.368;9.966;2023-07-31T14:54:42;21.60;1.00
13744;DHT22;6943;52.368;9.966;2023-07-31T14:57:08;21.60;1.00
13744;DHT22;6943;52.368;9.966;2023-07-31T14:59:34;21.50;1.00
13744;DHT22;6943;52.368;9.966;2023-07-31T15:01:59;21.30;1.00
13744;DHT22;6943;52.368;9.966;2023-07-31T15:04:25;21.00;83.30
13744;DHT22;6943;52.368;9.966;2023-07-31T15:06:51;20.80;99.90
13744;DHT22;6943;52.368;9.966;2023-07-31T15:09:17;20.50;1.00
13744;DHT22;6943;52.368;9.966;2023-07-31T15:11:42;20.30;99.90
13744;DHT22;6943;52.368;9.966;2023-07-31T15:14:08;20.20;1.00
13744;DHT22;6943;52.368;9.966;2023-07-31T15:16:33;20.30;1.00
13744;DHT22;6943;52.368;9.966;2023-07-31T15:18:59;20.40;99.90
13744;DHT22;6943;52.368;9.966;2023-07-31T15:21:25;20.80;1.00
13744;DHT22;6943;52.368;9.966;2023-07-31T15:23:51;21.10;51.10
13744;DHT22;6943;52.368;9.966;2023-07-31T15:26:16;21.40;1.00
13744;DHT22;6943;52.368;9.966;2023-07-31T15:28:42;21.80;1.00
13744;DHT22;6943;52.368;9.966;2023-07-31T15:31:08;22.00;99.90
13744;DHT22;6943;52.368;9.966;2023-07-31T15:33:33;22.20;99.90
13744;DHT22;6943;52.368;9.966;2023-07-31T15:35:59;22.20;13.60
13744;DHT22;6943;52.368;9.966;2023-07-31T15:38:24;22.20;1.00
13744;DHT22;6943;52.368;9.966;2023-07-31T15:40:50;22.30;1.00
13744;DHT22;6943;52.368;9.966;2023-07-31T15:43:16;22.10;1.00
13744;DHT22;6943;52.368;9.966;2023-07-31T15:45:42;22.00;99.90
13744;DHT22;6943;52.368;9.966;2023-07-31T15:48:08;21.60;99.90
13744;DHT22;6943;52.368;9.966;2023-07-31T15:50:33;21.60;99.90
13744;DHT22;6943;52.368;9.966;2023-07-31T15:52:59;21.50;1.00
13744;DHT22;6943;52.368;9.966;2023-07-31T15:55:24;21.20;99.90
13744;DHT22;6943;52.368;9.966;2023-07-31T15:57:50;21.00;1.00
13744;DHT22;6943;52.368;9.966;2023-07-31T16:00:16;20.70;99.90
13744;DHT22;6943;52.368;9.966;2023-07-31T16:02:42;20.50;99.90
13744;DHT22;6943;52.368;9.966;2023-07-31T16:05:08;20.40;99.90
13744;DHT22;6943;52.368;9.966;2023-07-31T16:07:34;20.50;99.90
13744;DHT22;6943;52.368;9.966;2023-07-31T16:09:59;20.70;1.00
13744;DHT22;6943;52.368;9.966;2023-07-31T16:12:25;20.80;1.00
13744;DHT22;6943;52.368;9.966;2023-07-31T16:14:51;20.90;99.90